Time;durP1;ratioP1;P1;durP2;ratioP2;P2;SDS_P1;SDS_P2;PMS_P1;PMS_P2;Temp;Humidity;BMP_temperature;BMP_pressure;BME280_temperature;BME280_humidity;BME280_pressure;Samples;Min_cycle;Max_cycle;Signal;HPM_P1;HPM_P2
2023/04/03 00:01:31;;;;;;;0.60;0.40;;;;;;;;;;5092640;28;20452;-64
2023/04/03 00:03:58;;;;;;;0.77;0.47;;;;;;;;;;5092168;28;20547;-64
2023/04/03 00:06:26;;;;;;;0.60;0.40;;;;;;;;;;5092258;28;20457;-64
2023/04/03 00:08:53;;;;;;;0.60;0.47;;;;;;;;;;5092160;28;20440;-65
2023/04/03 00:11:21;;;;;;;0.60;0.40;;;;;;;;;;5092343;28;20451;-64
2023/04/03 00:13:48;;;;;;;0.60;0.50;;;;;;;;;;5091947;28;20449;-64
2023/04/03 00:16:15;;;;;;;0.60;0.40;;;;;;;;;;5092335;28;20453;-65
2023/04/03 00:18:44;;;;;;;0.80;0.80;;;;;;;;;;5091964;28;20451;-64
2023/04/03 00:21:13;;;;;;;0.60;0.40;;;;;;;;;;5091825;28;20578;-64
2023/04/03 00:23:40;;;;;;;0.60;0.40;;;;;;;;;;5091840;28;20464;-65
2023/04/03 00:26:07;;;;;;;0.80;0.70;;;;;;;;;;5092132;28;20467;-64
2023/04/03 00:28:35;;;;;;;0.60;0.40;;;;;;;;;;5092357;28;20519;-65
2023/04/03 00:31:02;;;;;;;0.60;0.50;;;;;;;;;;5091764;28;20452;-65
2023/04/03 00:33:29;;;;;;;0.60;0.40;;;;;;;;;;5091721;28;20487;-65
2023/04/03 00:35:57;;;;;;;0.60;0.40;;;;;;;;;;5091443;28;20472;-64
2023/04/03 00:38:24;;;;;;;0.60;0.40;;;;;;;;;;5091972;28;20452;-64
2023/04/03 00:40:51;;;;;;;0.60;0.40;;;;;;;;;;5090833;28;20471;-64
2023/04/03 00:43:20;;;;;;;0.60;0.40;;;;;;;;;;5090880;28;20460;-64
2023/04/03 00:45:48;;;;;;;0.60;0.40;;;;;;;;;;5090972;28;20492;-64
2023/04/03 00:48:17;;;;;;;0.60;0.40;;;;;;;;;;5092012;28;20955;-65
2023/04/03 00:50:44;;;;;;;0.60;0.40;;;;;;;;;;5090823;28;20460;-64
2023/04/03 00:53:14;;;;;;;0.60;0.40;;;;;;;;;;5091836;28;20554;-64
2023/04/03 00:55:41;;;;;;;0.60;0.40;;;;;;;;;;5090968;28;21109;-64
2023/04/03 00:58:09;;;;;;;0.60;0.50;;;;;;;;;;5091653;28;20448;-64
2023/04/03 01:00:38;;;;;;;0.60;0.40;;;;;;;;;;5077068;28;20552;-63
2023/04/03 01:03:05;;;;;;;0.60;0.40;;;;;;;;;;5091353;28;20449;-64
2023/04/03 01:05:32;;;;;;;0.60;0.40;;;;;;;;;;5091482;28;20915;-64
2023/04/03 01:08:00;;;;;;;0.60;0.40;;;;;;;;;;5090994;28;20449;-64
2023/04/03 01:10:29;;;;;;;0.60;0.43;;;;;;;;;;5090824;28;20451;-64
2023/04/03 01:12:56;;;;;;;0.60;0.40;;;;;;;;;;5090635;28;20495;-64
2023/04/03 01:15:24;;;;;;;0.60;0.40;;;;;;;;;;5091477;28;20444;-65
2023/04/03 01:17:52;;;;;;;0.70;0.70;;;;;;;;;;5090803;28;20445;-64
2023/04/03 01:20:39;;;;;;;0.60;0.40;;;;;;;;;;5090543;28;20479;-64
2023/04/03 01:23:13;;;;;;;0.60;0.40;;;;;;;;;;5090906;28;20456;-64
2023/04/03 01:25:43;;;;;;;0.60;0.40;;;;;;;;;;5090874;28;20444;-64
2023/04/03 01:28:11;;;;;;;0.70;0.67;;;;;;;;;;5091030;28;20445;-64
2023/04/03 01:30:42;;;;;;;0.60;0.40;;;;;;;;;;5090320;28;20444;-64
2023/04/03 01:33:11;;;;;;;0.70;0.60;;;;;;;;;;5091326;28;20469;-64
2023/04/03 01:35:39;;;;;;;0.60;0.40;;;;;;;;;;5090273;28;20445;-64
2023/04/03 01:38:06;;;;;;;0.60;0.40;;;;;;;;;;5091065;28;20451;-64
2023/04/03 01:40:34;;;;;;;0.60;0.40;;;;;;;;;;5090488;28;20448;-64
2023/04/03 01:43:01;;;;;;;0.60;0.50;;;;;;;;;;5091049;28;20452;-64
2023/04/03 01:45:28;;;;;;;0.70;0.67;;;;;;;;;;5090646;28;20455;-64
2023/04/03 01:47:55;;;;;;;0.60;0.40;;;;;;;;;;5090279;28;20458;-64
2023/04/03 01:50:24;;;;;;;0.60;0.40;;;;;;;;;;5090317;28;20554;-64
2023/04/03 01:52:51;;;;;;;1.57;1.47;;;;;;;;;;5090058;28;20472;-64
2023/04/03 01:55:18;;;;;;;0.60;0.40;;;;;;;;;;5094799;28;20449;-64
2023/04/03 01:57:45;;;;;;;0.60;0.40;;;;;;;;;;5094386;28;20447;-64
2023/04/03 02:00:12;;;;;;;0.60;0.40;;;;;;;;;;5094674;28;20565;-64
2023/04/03 02:02:40;;;;;;;0.60;0.40;;;;;;;;;;5093941;28;20452;-64
2023/04/03 02:05:07;;;;;;;0.60;0.40;;;;;;;;;;5094439;28;20444;-64
2023/04/03 02:07:36;;;;;;;0.60;0.40;;;;;;;;;;5094965;28;20448;-65
2023/04/03 02:10:04;;;;;;;0.60;0.40;;;;;;;;;;5094379;28;20471;-64
2023/04/03 02:12:31;;;;;;;0.60;0.50;;;;;;;;;;5094641;28;20480;-65
2023/04/03 02:14:58;;;;;;;0.60;0.40;;;;;;;;;;5094260;28;20448;-65
2023/04/03 02:17:25;;;;;;;0.60;0.40;;;;;;;;;;5094713;28;20744;-64
2023/04/03 02:19:52;;;;;;;0.60;0.40;;;;;;;;;;5093321;28;20482;-65
2023/04/03 02:22:20;;;;;;;0.60;0.40;;;;;;;;;;5094630;28;20455;-64
2023/04/03 02:24:48;;;;;;;0.60;0.40;;;;;;;;;;5093995;28;20447;-64
2023/04/03 02:27:15;;;;;;;0.60;0.50;;;;;;;;;;5094431;28;20448;-64
2023/04/03 02:29:42;;;;;;;0.60;0.40;;;;;;;;;;5093495;28;20946;-64
2023/04/03 02:32:10;;;;;;;0.70;0.60;;;;;;;;;;5094125;28;20455;-64
2023/04/03 02:34:37;;;;;;;0.60;0.40;;;;;;;;;;5093781;28;20493;-64
2023/04/03 02:37:04;;;;;;;0.60;0.40;;;;;;;;;;5094514;28;20448;-66
2023/04/03 02:39:31;;;;;;;0.60;0.40;;;;;;;;;;5093742;28;20448;-65
2023/04/03 02:41:59;;;;;;;0.60;0.40;;;;;;;;;;5093546;28;20448;-64
2023/04/03 02:44:27;;;;;;;0.60;0.47;;;;;;;;;;5093915;28;20470;-66
2023/04/03 02:46:54;;;;;;;0.67;0.57;;;;;;;;;;5093511;28;20449;-65
2023/04/03 02:49:21;;;;;;;0.60;0.40;;;;;;;;;;5093390;28;20445;-64
2023/04/03 02:51:48;;;;;;;0.60;0.40;;;;;;;;;;5093447;28;20470;-64
2023/04/03 02:54:15;;;;;;;0.60;0.40;;;;;;;;;;5093824;28;20476;-64
2023/04/03 02:56:42;;;;;;;0.73;0.57;;;;;;;;;;5093271;28;20474;-64
2023/04/03 02:59:11;;;;;;;0.83;0.83;;;;;;;;;;5093568;28;20447;-64
2023/04/03 03:01:38;;;;;;;0.60;0.40;;;;;;;;;;5093336;28;20802;-64
2023/04/03 03:04:05;;;;;;;0.77;0.70;;;;;;;;;;5093997;28;20463;-65
2023/04/03 03:06:32;;;;;;;0.60;0.50;;;;;;;;;;5092795;28;20448;-64
2023/04/03 03:08:59;;;;;;;0.60;0.40;;;;;;;;;;5092548;28;20444;-64
2023/04/03 03:11:26;;;;;;;0.60;0.40;;;;;;;;;;5093098;28;20955;-64
2023/04/03 03:13:53;;;;;;;0.60;0.50;;;;;;;;;;5092960;28;20480;-64
2023/04/03 03:16:22;;;;;;;0.60;0.50;;;;;;;;;;5093430;28;20441;-64
2023/04/03 03:18:49;;;;;;;0.60;0.40;;;;;;;;;;5092529;28;20445;-65
2023/04/03 03:21:16;;;;;;;1.10;0.97;;;;;;;;;;5093488;28;20902;-64
2023/04/03 03:23:43;;;;;;;0.60;0.40;;;;;;;;;;5092985;28;20471;-64
2023/04/03 03:26:11;;;;;;;0.60;0.40;;;;;;;;;;5093485;28;20449;-64
2023/04/03 03:28:39;;;;;;;0.63;0.50;;;;;;;;;;5091991;28;20455;-64
2023/04/03 03:31:06;;;;;;;0.60;0.40;;;;;;;;;;5093133;28;20453;-64
2023/04/03 03:33:35;;;;;;;0.60;0.40;;;;;;;;;;5093418;28;20488;-64
2023/04/03 03:36:02;;;;;;;0.60;0.40;;;;;;;;;;5093267;28;20440;-64
2023/04/03 03:38:29;;;;;;;0.60;0.40;;;;;;;;;;5092864;28;20455;-64
2023/04/03 03:40:56;;;;;;;0.70;0.70;;;;;;;;;;5092058;28;20452;-64
2023/04/03 03:43:23;;;;;;;0.60;0.40;;;;;;;;;;5092514;28;20451;-64
2023/04/03 03:45:52;;;;;;;0.60;0.40;;;;;;;;;;5092437;28;20454;-64
2023/04/03 03:48:19;;;;;;;0.60;0.40;;;;;;;;;;5092651;28;20453;-64
2023/04/03 03:50:48;;;;;;;0.60;0.40;;;;;;;;;;5091922;28;20491;-64
2023/04/03 03:53:15;;;;;;;0.70;0.70;;;;;;;;;;5092752;28;20484;-64
2023/04/03 03:55:43;;;;;;;0.60;0.40;;;;;;;;;;5091924;28;20449;-64
2023/04/03 03:58:10;;;;;;;0.60;0.40;;;;;;;;;;5092764;28;20450;-64
2023/04/03 04:00:37;;;;;;;0.60;0.40;;;;;;;;;;5091663;28;20790;-64
2023/04/03 04:03:04;;;;;;;0.60;0.40;;;;;;;;;;5092686;28;20452;-64
2023/04/03 04:05:31;;;;;;;0.60;0.40;;;;;;;;;;5092829;28;20444;-64
2023/04/03 04:08:00;;;;;;;2.97;2.70;;;;;;;;;;5091699;28;20449;-64
2023/04/03 04:10:27;;;;;;;0.60;0.40;;;;;;;;;;5091866;28;20445;-64
2023/04/03 04:12:54;;;;;;;0.60;0.40;;;;;;;;;;5091611;28;20825;-64
2023/04/03 04:15:22;;;;;;;0.60;0.40;;;;;;;;;;5092529;28;20437;-64
2023/04/03 04:17:49;;;;;;;0.60;0.40;;;;;;;;;;5091796;28;20449;-64
2023/04/03 04:20:17;;;;;;;0.60;0.40;;;;;;;;;;5091875;28;20499;-64
2023/04/03 04:22:44;;;;;;;0.60;0.40;;;;;;;;;;5091648;28;20447;-64
2023/04/03 04:25:12;;;;;;;0.60;0.40;;;;;;;;;;5092315;28;20448;-64
2023/04/03 04:27:40;;;;;;;0.60;0.40;;;;;;;;;;5091562;28;20448;-64
2023/04/03 04:30:08;;;;;;;0.60;0.40;;;;;;;;;;5091853;28;20476;-64
2023/04/03 04:32:35;;;;;;;0.60;0.40;;;;;;;;;;5091846;28;20455;-64
2023/04/03 04:35:02;;;;;;;0.60;0.40;;;;;;;;;;5092043;28;20537;-64
2023/04/03 04:37:30;;;;;;;0.60;0.40;;;;;;;;;;5091638;28;20452;-64
2023/04/03 04:39:57;;;;;;;0.60;0.40;;;;;;;;;;5090968;28;20460;-64
2023/04/03 04:42:25;;;;;;;1.27;0.60;;;;;;;;;;5091642;28;20455;-64
2023/04/03 04:44:52;;;;;;;0.60;0.40;;;;;;;;;;5091491;28;20459;-64
2023/04/03 04:47:20;;;;;;;0.60;0.40;;;;;;;;;;5091684;28;20456;-64
2023/04/03 04:49:47;;;;;;;0.60;0.40;;;;;;;;;;5090975;28;20457;-65
2023/04/03 04:52:14;;;;;;;0.60;0.40;;;;;;;;;;5091776;28;20754;-64
2023/04/03 04:54:42;;;;;;;0.60;0.40;;;;;;;;;;5090970;28;20479;-64
2023/04/03 04:57:10;;;;;;;0.60;0.40;;;;;;;;;;5091631;28;20765;-64
2023/04/03 04:59:38;;;;;;;0.60;0.40;;;;;;;;;;5090695;28;20500;-64
2023/04/03 05:02:05;;;;;;;0.60;0.40;;;;;;;;;;5091344;28;20455;-64
2023/04/03 05:04:33;;;;;;;0.60;0.50;;;;;;;;;;5091624;28;20453;-64
2023/04/03 05:07:00;;;;;;;0.70;0.70;;;;;;;;;;5090671;28;20441;-64
2023/04/03 05:09:27;;;;;;;0.60;0.40;;;;;;;;;;5091051;28;20453;-64
2023/04/03 05:11:56;;;;;;;0.60;0.40;;;;;;;;;;5090356;28;20449;-64
2023/04/03 05:14:23;;;;;;;0.60;0.40;;;;;;;;;;5091169;28;20512;-65
2023/04/03 05:16:53;;;;;;;0.60;0.40;;;;;;;;;;5090959;28;20448;-64
2023/04/03 05:19:20;;;;;;;0.60;0.43;;;;;;;;;;5090486;28;20445;-64
2023/04/03 05:21:47;;;;;;;0.60;0.40;;;;;;;;;;5090943;28;20546;-64
2023/04/03 05:24:15;;;;;;;0.60;0.40;;;;;;;;;;5091223;28;20452;-64
2023/04/03 05:26:42;;;;;;;0.60;0.40;;;;;;;;;;5090510;28;20444;-64
2023/04/03 05:29:10;;;;;;;0.70;0.50;;;;;;;;;;5090430;28;20445;-64
2023/04/03 05:31:37;;;;;;;0.60;0.40;;;;;;;;;;5090748;28;20510;-64
2023/04/03 05:34:06;;;;;;;0.60;0.40;;;;;;;;;;5090991;28;21002;-65
2023/04/03 05:36:33;;;;;;;0.60;0.40;;;;;;;;;;5091312;28;20535;-64
2023/04/03 05:39:00;;;;;;;0.60;0.40;;;;;;;;;;5090087;28;20460;-64
2023/04/03 05:41:27;;;;;;;0.60;0.40;;;;;;;;;;5091077;28;20540;-64
2023/04/03 05:43:54;;;;;;;0.60;0.40;;;;;;;;;;5090345;28;20455;-64
2023/04/03 05:46:21;;;;;;;0.60;0.40;;;;;;;;;;5091124;28;20462;-65
2023/04/03 05:48:49;;;;;;;0.60;0.40;;;;;;;;;;5090076;28;20449;-64
2023/04/03 05:51:18;;;;;;;0.60;0.40;;;;;;;;;;5091222;28;20460;-64
2023/04/03 05:53:46;;;;;;;0.60;0.50;;;;;;;;;;5090291;28;20838;-64
2023/04/03 05:56:13;;;;;;;0.60;0.40;;;;;;;;;;5090996;28;20456;-64
2023/04/03 05:58:40;;;;;;;0.60;0.40;;;;;;;;;;5090002;28;20864;-64
2023/04/03 06:01:07;;;;;;;0.60;0.40;;;;;;;;;;5090959;28;20448;-64
2023/04/03 06:03:35;;;;;;;0.60;0.40;;;;;;;;;;5090754;28;20946;-64
2023/04/03 06:06:03;;;;;;;0.70;0.50;;;;;;;;;;5091113;28;20506;-65
2023/04/03 06:08:32;;;;;;;0.60;0.40;;;;;;;;;;5090743;28;20444;-64
2023/04/03 06:10:59;;;;;;;0.60;0.40;;;;;;;;;;5090221;28;20874;-64
2023/04/03 06:13:27;;;;;;;0.60;0.40;;;;;;;;;;5090206;28;20456;-64
2023/04/03 06:15:54;;;;;;;1.13;1.03;;;;;;;;;;5090313;28;20785;-64
2023/04/03 06:18:21;;;;;;;0.60;0.40;;;;;;;;;;5090399;28;20459;-64
2023/04/03 06:20:48;;;;;;;0.60;0.40;;;;;;;;;;5089793;28;20483;-64
2023/04/03 06:23:16;;;;;;;0.60;0.40;;;;;;;;;;5090707;28;20455;-65
2023/04/03 06:25:44;;;;;;;0.60;0.40;;;;;;;;;;5089860;28;20954;-64
2023/04/03 06:28:11;;;;;;;0.80;0.80;;;;;;;;;;5090269;28;20459;-64
2023/04/03 06:30:39;;;;;;;0.60;0.40;;;;;;;;;;5089431;28;20449;-64
2023/04/03 06:33:06;;;;;;;0.70;0.60;;;;;;;;;;5090701;28;20448;-64
2023/04/03 06:35:34;;;;;;;0.60;0.40;;;;;;;;;;5090653;28;20479;-64
2023/04/03 06:38:03;;;;;;;0.60;0.40;;;;;;;;;;5090695;28;20529;-65
2023/04/03 06:40:31;;;;;;;0.60;0.40;;;;;;;;;;5090836;28;20449;-64
2023/04/03 06:42:59;;;;;;;0.60;0.40;;;;;;;;;;5093607;28;20448;-64
2023/04/03 06:45:27;;;;;;;0.60;0.40;;;;;;;;;;5093890;28;20939;-65
2023/04/03 06:47:54;;;;;;;0.60;0.40;;;;;;;;;;5093783;28;20456;-64
2023/04/03 06:50:21;;;;;;;0.60;0.40;;;;;;;;;;5093656;28;20452;-64
2023/04/03 06:52:48;;;;;;;0.70;0.50;;;;;;;;;;5093562;28;20448;-64
2023/04/03 06:55:15;;;;;;;0.60;0.40;;;;;;;;;;5093848;28;20487;-64
2023/04/03 06:57:42;;;;;;;0.60;0.50;;;;;;;;;;5093370;28;20444;-64
2023/04/03 07:00:12;;;;;;;0.60;0.40;;;;;;;;;;5093627;28;20449;-64
2023/04/03 07:02:40;;;;;;;0.60;0.40;;;;;;;;;;5093736;28;20449;-64
2023/04/03 07:05:08;;;;;;;0.60;0.40;;;;;;;;;;5093796;28;20487;-64
2023/04/03 07:07:37;;;;;;;0.60;0.40;;;;;;;;;;5093771;28;20449;-62
2023/04/03 07:10:05;;;;;;;0.60;0.40;;;;;;;;;;5093176;28;20497;-64
2023/04/03 07:12:32;;;;;;;0.60;0.40;;;;;;;;;;5093701;28;20449;-65
2023/04/03 07:14:59;;;;;;;0.60;0.40;;;;;;;;;;5092803;28;20464;-64
2023/04/03 07:17:27;;;;;;;0.60;0.40;;;;;;;;;;5093361;28;20449;-64
2023/04/03 07:19:55;;;;;;;0.87;0.87;;;;;;;;;;5092069;28;21097;-64
2023/04/03 07:22:22;;;;;;;0.60;0.50;;;;;;;;;;5093579;28;20831;-65
2023/04/03 07:24:49;;;;;;;0.60;0.40;;;;;;;;;;5092816;28;20448;-64
2023/04/03 07:27:17;;;;;;;0.70;0.60;;;;;;;;;;5093364;28;20451;-64
2023/04/03 07:29:44;;;;;;;0.60;0.40;;;;;;;;;;5092355;28;20448;-64
2023/04/03 07:32:12;;;;;;;4.57;1.00;;;;;;;;;;5093315;28;20457;-64
2023/04/03 07:34:40;;;;;;;0.60;0.40;;;;;;;;;;5092634;28;20857;-64
2023/04/03 07:37:08;;;;;;;0.60;0.40;;;;;;;;;;5093161;28;20452;-64
2023/04/03 07:39:36;;;;;;;0.60;0.40;;;;;;;;;;5092294;28;20943;-62
2023/04/03 07:42:03;;;;;;;0.87;0.60;;;;;;;;;;5092821;28;20453;-64
2023/04/03 07:44:30;;;;;;;0.70;0.50;;;;;;;;;;5092760;28;20459;-65
2023/04/03 07:46:57;;;;;;;0.60;0.50;;;;;;;;;;5092384;28;20879;-64
2023/04/03 07:49:25;;;;;;;0.60;0.40;;;;;;;;;;5092562;28;20467;-64
2023/04/03 07:51:54;;;;;;;1.47;0.70;;;;;;;;;;5091671;28;20986;-64
2023/04/03 07:54:21;;;;;;;0.60;0.50;;;;;;;;;;5092955;28;20480;-64
2023/04/03 07:56:48;;;;;;;0.60;0.50;;;;;;;;;;5092223;28;20456;-65
2023/04/03 07:59:15;;;;;;;0.60;0.40;;;;;;;;;;5091855;28;20449;-64
2023/04/03 08:01:42;;;;;;;0.60;0.40;;;;;;;;;;5092023;28;20808;-64
2023/04/03 08:04:10;;;;;;;1.53;1.43;;;;;;;;;;5092778;28;20456;-64
2023/04/03 08:06:37;;;;;;;0.70;0.60;;;;;;;;;;5091837;28;21026;-64
2023/04/03 08:09:05;;;;;;;0.60;0.40;;;;;;;;;;5092430;28;20452;-64
2023/04/03 08:11:33;;;;;;;0.73;0.70;;;;;;;;;;5092600;28;20452;-65
2023/04/03 08:14:01;;;;;;;0.60;0.40;;;;;;;;;;5091995;28;20773;-64
2023/04/03 08:16:28;;;;;;;0.80;0.57;;;;;;;;;;5092397;28;20980;-65
2023/04/03 08:18:55;;;;;;;0.60;0.40;;;;;;;;;;5091479;28;20679;-64
2023/04/03 08:21:23;;;;;;;0.60;0.40;;;;;;;;;;5092305;28;20476;-65
2023/04/03 08:23:50;;;;;;;0.67;0.60;;;;;;;;;;5091776;28;20810;-64
2023/04/03 08:26:21;;;;;;;0.60;0.40;;;;;;;;;;5092240;28;20455;-64
2023/04/03 08:28:48;;;;;;;0.60;0.50;;;;;;;;;;5091262;28;20448;-64
2023/04/03 08:31:17;;;;;;;0.60;0.40;;;;;;;;;;5091748;28;20954;-64
2023/04/03 08:33:44;;;;;;;0.60;0.50;;;;;;;;;;5091317;28;20476;-65
2023/04/03 08:36:18;;;;;;;0.60;0.40;;;;;;;;;;5092107;28;20480;-64
2023/04/03 08:38:46;;;;;;;0.60;0.40;;;;;;;;;;5091240;28;20463;-64
2023/04/03 08:41:16;;;;;;;0.60;0.50;;;;;;;;;;5091656;28;20452;-65
2023/04/03 08:43:53;;;;;;;0.60;0.40;;;;;;;;;;5091171;28;20513;-64
2023/04/03 08:46:23;;;;;;;0.70;0.60;;;;;;;;;;5091642;28;20452;-64
2023/04/03 08:48:51;;;;;;;0.60;0.40;;;;;;;;;;5090868;28;20444;-64
2023/04/03 08:51:19;;;;;;;0.60;0.50;;;;;;;;;;5091461;28;20939;-64
2023/04/03 08:53:51;;;;;;;0.60;0.47;;;;;;;;;;5090890;28;20447;-64
2023/04/03 08:56:20;;;;;;;0.60;0.40;;;;;;;;;;5091756;28;20480;-64
2023/04/03 08:58:52;;;;;;;0.60;0.40;;;;;;;;;;5090539;28;20455;-64
2023/04/03 09:01:21;;;;;;;0.60;0.40;;;;;;;;;;5091659;28;20439;-64
2023/04/03 09:03:48;;;;;;;0.60;0.40;;;;;;;;;;5090103;28;20672;-64
2023/04/03 09:06:17;;;;;;;0.60;0.40;;;;;;;;;;5091155;28;20451;-64
2023/04/03 09:08:45;;;;;;;0.63;0.47;;;;;;;;;;5077068;28;20448;-64
2023/04/03 09:11:16;;;;;;;0.60;0.40;;;;;;;;;;5090942;28;20524;-64
2023/04/03 09:13:47;;;;;;;1.33;1.23;;;;;;;;;;5090688;28;20445;-64
2023/04/03 09:16:21;;;;;;;0.60;0.50;;;;;;;;;;5091160;28;20469;-64
2023/04/03 09:18:52;;;;;;;0.60;0.57;;;;;;;;;;5090495;28;20448;-65
2023/04/03 09:21:22;;;;;;;1.00;0.90;;;;;;;;;;5091102;28;20851;-65
2023/04/03 09:23:51;;;;;;;0.60;0.40;;;;;;;;;;5090694;28;20448;-65
2023/04/03 09:26:20;;;;;;;0.60;0.40;;;;;;;;;;5091045;28;20531;-64
2023/04/03 09:28:47;;;;;;;0.60;0.40;;;;;;;;;;5090087;28;20484;-64
2023/04/03 09:31:24;;;;;;;1.03;0.93;;;;;;;;;;5090675;28;20893;-64
2023/04/03 09:33:52;;;;;;;0.60;0.40;;;;;;;;;;5090617;28;20436;-64
2023/04/03 09:36:34;;;;;;;0.60;0.40;;;;;;;;;;5077513;28;20507;-64
2023/04/03 09:39:05;;;;;;;0.60;0.50;;;;;;;;;;5090031;28;20440;-64
2023/04/03 09:41:33;;;;;;;0.60;0.40;;;;;;;;;;5090910;28;20448;-64
2023/04/03 09:44:01;;;;;;;0.60;0.40;;;;;;;;;;5090136;28;20441;-64
2023/04/03 09:46:32;;;;;;;0.60;0.50;;;;;;;;;;5091360;28;20456;-65
2023/04/03 09:49:00;;;;;;;0.60;0.40;;;;;;;;;;5089570;28;20449;-65
2023/04/03 09:51:28;;;;;;;0.60;0.40;;;;;;;;;;5091084;28;20479;-65
2023/04/03 09:53:55;;;;;;;0.60;0.43;;;;;;;;;;5090162;28;20997;-65
2023/04/03 09:56:25;;;;;;;0.60;0.40;;;;;;;;;;5091073;28;20994;-64
2023/04/03 09:58:53;;;;;;;0.60;0.40;;;;;;;;;;5090472;28;20495;-64
2023/04/03 10:01:28;;;;;;;0.60;0.40;;;;;;;;;;5090881;28;20807;-64
2023/04/03 10:04:08;;;;;;;0.70;0.57;;;;;;;;;;5077439;28;20444;-65
2023/04/03 10:06:37;;;;;;;0.60;0.40;;;;;;;;;;5090426;28;20450;-63
2023/04/03 10:09:06;;;;;;;1.30;0.97;;;;;;;;;;5090382;28;20806;-65
2023/04/03 10:11:34;;;;;;;0.60;0.40;;;;;;;;;;5090729;28;20445;-65
2023/04/03 10:14:03;;;;;;;0.60;0.40;;;;;;;;;;5090619;28;20445;-65
2023/04/03 10:16:37;;;;;;;0.60;0.40;;;;;;;;;;5094823;28;20486;-65
2023/04/03 10:19:26;;;;;;;0.60;0.40;;;;;;;;;;5094083;28;20497;-64
2023/04/03 10:21:57;;;;;;;0.60;0.40;;;;;;;;;;5093750;28;20455;-65
2023/04/03 10:24:26;;;;;;;0.60;0.40;;;;;;;;;;5094542;28;20435;-65
2023/04/03 10:26:58;;;;;;;0.60;0.40;;;;;;;;;;5093611;28;20494;-65
2023/04/03 10:29:41;;;;;;;0.60;0.50;;;;;;;;;;5093898;28;20486;-65
2023/04/03 10:32:17;;;;;;;0.60;0.40;;;;;;;;;;5094516;28;20440;-64
2023/04/03 10:34:47;;;;;;;0.73;0.67;;;;;;;;;;5093655;28;20482;-64
2023/04/03 10:37:18;;;;;;;0.60;0.40;;;;;;;;;;5092963;28;20840;-64
2023/04/03 10:39:49;;;;;;;0.60;0.40;;;;;;;;;;5092500;28;20444;-64
2023/04/03 10:42:20;;;;;;;0.60;0.40;;;;;;;;;;5093800;28;20476;-64
2023/04/03 10:44:53;;;;;;;0.70;0.70;;;;;;;;;;5093055;28;20830;-63
2023/04/03 10:47:22;;;;;;;0.60;0.40;;;;;;;;;;5091224;28;20455;-64
2023/04/03 10:49:58;;;;;;;0.60;0.40;;;;;;;;;;5092381;28;20475;-64
2023/04/03 10:52:30;;;;;;;0.50;0.40;;;;;;;;;;5093970;28;20444;-64
2023/04/03 10:55:01;;;;;;;1.83;0.93;;;;;;;;;;5092847;28;20447;-64
2023/04/03 10:57:29;;;;;;;0.60;0.50;;;;;;;;;;5080149;28;20927;-65
2023/04/03 10:59:58;;;;;;;0.70;0.67;;;;;;;;;;5092391;28;20453;-65
2023/04/03 11:02:26;;;;;;;0.60;0.40;;;;;;;;;;5093777;28;20543;-64
2023/04/03 11:04:57;;;;;;;0.60;0.40;;;;;;;;;;5092625;28;20938;-64
2023/04/03 11:07:26;;;;;;;0.60;0.40;;;;;;;;;;5093888;28;20444;-64
2023/04/03 11:09:55;;;;;;;0.60;0.40;;;;;;;;;;5092615;28;20445;-63
2023/04/03 11:12:26;;;;;;;1.20;0.83;;;;;;;;;;5084402;28;20799;-63
2023/04/03 11:14:53;;;;;;;0.60;0.40;;;;;;;;;;5092525;28;20927;-64
2023/04/03 11:17:24;;;;;;;0.60;0.40;;;;;;;;;;5092915;28;20943;-65
2023/04/03 11:19:54;;;;;;;0.70;0.67;;;;;;;;;;5092315;28;20855;-64
2023/04/03 11:22:26;;;;;;;0.60;0.40;;;;;;;;;;5093309;28;20811;-64
2023/04/03 11:24:59;;;;;;;0.60;0.40;;;;;;;;;;5092557;28;20461;-64
2023/04/03 11:27:27;;;;;;;0.60;0.40;;;;;;;;;;5092647;28;20910;-64
2023/04/03 11:29:54;;;;;;;0.80;0.70;;;;;;;;;;5091746;28;20443;-64
2023/04/03 11:32:41;;;;;;;0.60;0.40;;;;;;;;;;5091214;28;20786;-63
2023/04/03 11:35:09;;;;;;;0.60;0.40;;;;;;;;;;5081970;28;20795;-64
2023/04/03 11:37:39;;;;;;;0.50;0.40;;;;;;;;;;5091810;28;20441;-64
2023/04/03 11:40:08;;;;;;;0.80;0.80;;;;;;;;;;5091108;28;20440;-65
2023/04/03 11:42:38;;;;;;;0.60;0.40;;;;;;;;;;5091246;28;20498;-63
2023/04/03 11:45:18;;;;;;;0.50;0.40;;;;;;;;;;5092668;28;20471;-64
2023/04/03 11:47:47;;;;;;;2.50;2.30;;;;;;;;;;5078993;28;22119;-64
2023/04/03 11:50:29;;;;;;;0.60;0.40;;;;;;;;;;5092163;28;20453;-64
2023/04/03 11:53:02;;;;;;;0.60;0.40;;;;;;;;;;5088815;28;20452;-63
2023/04/03 11:55:59;;;;;;;0.60;0.40;;;;;;;;;;5084232;28;20496;-62
2023/04/03 11:58:27;;;;;;;0.60;0.40;;;;;;;;;;5017327;28;20506;-62
2023/04/03 12:00:58;;;;;;;0.60;0.40;;;;;;;;;;5071970;28;20457;-63
2023/04/03 12:03:52;;;;;;;0.60;0.40;;;;;;;;;;5090873;28;20451;-64
2023/04/03 12:06:37;;;;;;;0.60;0.40;;;;;;;;;;5089911;28;20440;-63
2023/04/03 12:09:23;;;;;;;0.60;0.40;;;;;;;;;;5091636;28;20436;-62
2023/04/03 12:11:50;;;;;;;0.60;0.40;;;;;;;;;;5090711;28;20445;-62
2023/04/03 12:14:18;;;;;;;0.60;0.47;;;;;;;;;;5091098;28;20991;-62
2023/04/03 12:16:47;;;;;;;0.60;0.40;;;;;;;;;;5089156;28;20476;-62
2023/04/03 12:19:44;;;;;;;0.70;0.50;;;;;;;;;;5086833;28;20449;-62
2023/04/03 12:22:13;;;;;;;0.70;0.50;;;;;;;;;;5029297;28;20434;-62
2023/04/03 12:24:42;;;;;;;0.50;0.40;;;;;;;;;;5090772;28;20279;-62
2023/04/03 12:27:24;;;;;;;1.00;1.00;;;;;;;;;;5090988;28;20476;-62
2023/04/03 12:29:54;;;;;;;0.60;0.40;;;;;;;;;;5083201;28;20482;-62
2023/04/03 12:32:27;;;;;;;0.50;0.40;;;;;;;;;;5090893;28;20445;-62
2023/04/03 12:35:03;;;;;;;0.60;0.50;;;;;;;;;;5090291;28;20447;-62
2023/04/03 12:37:43;;;;;;;0.60;0.50;;;;;;;;;;5091393;28;20468;-62
2023/04/03 12:40:17;;;;;;;0.60;0.43;;;;;;;;;;5090875;28;20448;-62
2023/04/03 12:43:04;;;;;;;0.50;0.40;;;;;;;;;;5090197;28;20868;-62
2023/04/03 12:45:40;;;;;;;0.60;0.40;;;;;;;;;;5090944;28;20879;-62
2023/04/03 12:48:13;;;;;;;0.60;0.43;;;;;;;;;;5090992;28;20432;-62
2023/04/03 12:50:42;;;;;;;0.53;0.40;;;;;;;;;;5089712;28;20452;-62
2023/04/03 12:53:15;;;;;;;0.60;0.50;;;;;;;;;;5091314;28;20527;-62
2023/04/03 12:55:45;;;;;;;1.00;0.90;;;;;;;;;;5088974;28;20441;-62
2023/04/03 12:58:16;;;;;;;1.63;1.23;;;;;;;;;;5090260;28;20457;-62
2023/04/03 13:00:43;;;;;;;0.60;0.40;;;;;;;;;;5089906;28;20452;-62
2023/04/03 13:03:23;;;;;;;0.60;0.40;;;;;;;;;;5091063;28;20448;-62
2023/04/03 13:05:50;;;;;;;2.13;0.50;;;;;;;;;;5088556;28;20522;-61
2023/04/03 13:08:19;;;;;;;0.60;0.40;;;;;;;;;;5089734;28;20484;-62
2023/04/03 13:10:52;;;;;;;0.60;0.40;;;;;;;;;;5089694;28;20452;-62
2023/04/03 13:13:19;;;;;;;0.60;0.50;;;;;;;;;;5088687;28;20440;-61
2023/04/03 13:15:49;;;;;;;0.60;0.40;;;;;;;;;;5086479;28;20498;-61
2023/04/03 13:18:24;;;;;;;1.43;0.87;;;;;;;;;;5089295;28;20444;-63
2023/04/03 13:20:51;;;;;;;0.60;0.40;;;;;;;;;;5087872;28;20468;-62
2023/04/03 13:23:20;;;;;;;0.60;0.40;;;;;;;;;;5089928;28;20444;-64
2023/04/03 13:25:48;;;;;;;0.60;0.50;;;;;;;;;;5089987;28;20793;-62
2023/04/03 13:28:18;;;;;;;0.60;0.50;;;;;;;;;;5090233;28;20498;-63
2023/04/03 13:30:56;;;;;;;0.60;0.40;;;;;;;;;;5090156;28;20441;-63
2023/04/03 13:33:24;;;;;;;0.57;0.40;;;;;;;;;;5090589;28;20448;-61
2023/04/03 13:35:57;;;;;;;0.60;0.50;;;;;;;;;;5089904;28;20455;-62
2023/04/03 13:38:25;;;;;;;0.60;0.50;;;;;;;;;;5090273;28;20476;-62
2023/04/03 13:40:53;;;;;;;0.50;0.40;;;;;;;;;;5087481;28;20448;-62
2023/04/03 13:43:22;;;;;;;0.50;0.40;;;;;;;;;;5089617;28;20947;-60
2023/04/03 13:45:57;;;;;;;0.50;0.40;;;;;;;;;;5088675;28;20460;-62
2023/04/03 13:48:24;;;;;;;0.50;0.40;;;;;;;;;;5090079;28;20444;-61
2023/04/03 13:51:00;;;;;;;0.60;0.40;;;;;;;;;;5093558;28;20755;-62
2023/04/03 13:53:27;;;;;;;0.50;0.40;;;;;;;;;;5094326;28;20832;-61
2023/04/03 13:55:57;;;;;;;0.50;0.40;;;;;;;;;;5092078;28;20527;-61
2023/04/03 13:58:26;;;;;;;0.50;0.40;;;;;;;;;;5093940;28;20792;-62
2023/04/03 14:00:55;;;;;;;0.50;0.40;;;;;;;;;;5094045;28;20451;-62
2023/04/03 14:03:23;;;;;;;0.50;0.40;;;;;;;;;;5094368;28;20452;-62
2023/04/03 14:05:50;;;;;;;3.10;0.70;;;;;;;;;;5091083;28;20444;-61
2023/04/03 14:08:17;;;;;;;0.50;0.40;;;;;;;;;;5093955;28;20440;-61
2023/04/03 14:10:45;;;;;;;0.50;0.40;;;;;;;;;;5093602;28;20455;-61
2023/04/03 14:13:13;;;;;;;0.60;0.53;;;;;;;;;;5089921;28;20436;-61
2023/04/03 14:15:42;;;;;;;0.60;0.50;;;;;;;;;;5094129;28;20451;-60
2023/04/03 14:18:11;;;;;;;0.60;0.50;;;;;;;;;;5088673;28;20489;-60
2023/04/03 14:20:38;;;;;;;0.50;0.40;;;;;;;;;;5088114;28;20483;-67
2023/04/03 14:23:06;;;;;;;0.50;0.40;;;;;;;;;;5093344;28;20437;-64
2023/04/03 14:25:33;;;;;;;0.60;0.60;;;;;;;;;;5092853;28;20475;-64
2023/04/03 14:28:01;;;;;;;0.50;0.40;;;;;;;;;;5093279;28;20452;-63
2023/04/03 14:30:29;;;;;;;0.50;0.40;;;;;;;;;;5093743;28;20445;-64
2023/04/03 14:32:58;;;;;;;0.60;0.47;;;;;;;;;;5090205;28;20459;-63
2023/04/03 14:35:26;;;;;;;0.80;0.80;;;;;;;;;;5084847;28;20446;-66
2023/04/03 14:37:53;;;;;;;0.50;0.40;;;;;;;;;;5092918;28;20483;-64
2023/04/03 14:40:21;;;;;;;0.60;0.50;;;;;;;;;;5094164;28;20452;-61
2023/04/03 14:42:48;;;;;;;0.50;0.40;;;;;;;;;;5093038;28;20437;-63
2023/04/03 14:45:16;;;;;;;0.50;0.40;;;;;;;;;;5093624;28;20482;-64
2023/04/03 14:47:46;;;;;;;0.50;0.40;;;;;;;;;;5091419;28;20448;-63
2023/04/03 14:50:15;;;;;;;0.50;0.40;;;;;;;;;;5085748;28;20448;-64
2023/04/03 14:52:43;;;;;;;0.50;0.40;;;;;;;;;;5092643;28;20449;-63
2023/04/03 14:55:11;;;;;;;0.60;0.50;;;;;;;;;;5092582;28;20967;-63